sim
Sign-in with your pilot id or email,
or register
Callsign
Passwort

Schedule Details

Flight Number: OEO7667
Departure: Montreal Pierre Elliott Trudeau Airport (CYUL) at 22:30
Arrival: Munich Airport (EDDM) at 06:05

Weather Information
Getting current METAR information for CYUL 220400Z VRB02KT 15SM SKC 07/03 A3039 RMK SLP292
Getting current METAR information for EDDM 220420Z VRB02KT 2000 1000N R08L/0750V1300N R08R/P2000N BCFG FEW002 08/08 Q1014 TEMPO 1200

Schedule Frequency

Route Map